createdAt,value
2023-01-12T00:01:04.985Z,8.2
2023-01-12T00:05:11.964Z,8.3
2023-01-12T00:07:13.962Z,8.3
2023-01-12T00:09:15.925Z,8.3
2023-01-12T00:11:17.923Z,8.4
2023-01-12T00:17:23.831Z,8.4
2023-01-12T00:19:28.893Z,8.4
2023-01-12T00:23:32.865Z,8.5
2023-01-12T00:24:35.371Z,8.4
2023-01-12T00:32:46.364Z,8.5
2023-01-12T00:40:54.274Z,8.5
2023-01-12T00:42:56.271Z,8.4
2023-01-12T00:44:58.250Z,8.3
2023-01-12T00:47:03.268Z,8.3
2023-01-12T00:49:05.255Z,8.3
2023-01-12T00:51:07.259Z,8.2
2023-01-12T00:53:09.228Z,8.3
2023-01-12T00:55:11.210Z,8.3
2023-01-12T00:59:15.187Z,8.3
2023-01-12T01:01:20.375Z,8.3
2023-01-12T01:03:22.207Z,8.3
2023-01-12T01:05:24.187Z,8.3
2023-01-12T01:07:26.152Z,8.3
2023-01-12T01:19:41.123Z,8.4
2023-01-12T01:20:43.654Z,8.4
2023-01-12T01:22:45.637Z,8.5
2023-01-12T01:24:47.593Z,8.5
2023-01-12T01:26:49.579Z,8.5
2023-01-12T01:28:54.640Z,8.4
2023-01-12T01:30:56.665Z,8.5
2023-01-12T01:32:58.611Z,8.5
2023-01-12T01:35:00.565Z,8.5
2023-01-12T01:37:02.579Z,8.5
2023-01-12T01:39:04.571Z,8.5
2023-01-12T01:41:06.547Z,8.4
2023-01-12T01:43:11.576Z,8.5
2023-01-12T01:45:13.556Z,8.4
2023-01-12T01:47:15.527Z,8.5
2023-01-12T01:49:17.563Z,8.5
2023-01-12T01:51:19.516Z,8.5
2023-01-12T01:53:21.501Z,8.5
2023-01-12T01:55:23.497Z,8.6
2023-01-12T01:57:28.524Z,8.5
2023-01-12T01:59:30.512Z,8.5
2023-01-12T02:01:32.600Z,8.6
2023-01-12T02:03:36.905Z,8.5
2023-01-12T02:05:36.418Z,8.5
2023-01-12T02:07:38.419Z,8.5
2023-01-12T02:09:40.403Z,8.5
2023-01-12T02:13:47.420Z,8.5
2023-01-12T02:15:49.418Z,8.5
2023-01-12T02:24:15.279Z,8.3
2023-01-12T02:30:21.249Z,8.3
2023-01-12T02:32:23.187Z,8.3
2023-01-12T02:34:25.186Z,8.4
2023-01-12T02:36:27.150Z,8.4
2023-01-12T02:38:32.220Z,8.4
2023-01-12T02:40:34.189Z,8.4
2023-01-12T02:42:36.162Z,8.5
2023-01-12T02:48:42.123Z,8.4
2023-01-12T02:50:44.111Z,8.5
2023-01-12T02:52:49.138Z,8.4
2023-01-12T02:54:51.095Z,8.5
2023-01-12T02:56:53.100Z,8.5
2023-01-12T02:58:55.078Z,8.5
2023-01-12T03:00:57.138Z,8.5
2023-01-12T03:02:59.074Z,8.5
2023-01-12T03:05:00.986Z,8.5
2023-01-12T03:07:06.065Z,8.4
2023-01-12T03:09:08.005Z,8.4
2023-01-12T03:11:09.994Z,8.4
2023-01-12T03:12:12.481Z,8.4
2023-01-12T03:14:14.489Z,8.4
2023-01-12T03:16:16.548Z,8.3
2023-01-12T03:18:18.467Z,8.3
2023-01-12T03:20:23.485Z,8.3
2023-01-12T03:22:25.433Z,8.3
2023-01-12T03:24:27.455Z,8.3
2023-01-12T03:26:29.402Z,8.2
2023-01-12T03:28:31.374Z,8.3
2023-01-12T03:32:35.325Z,8.2
2023-01-12T03:34:40.355Z,8.3
2023-01-12T03:36:42.347Z,8.2
2023-01-12T03:38:44.322Z,8.3
2023-01-12T03:40:46.292Z,8.3
2023-01-12T03:53:01.220Z,8.2
2023-01-12T03:55:03.184Z,8.2
2023-01-12T03:57:05.191Z,8.2
2023-01-12T03:59:07.213Z,8.2
2023-01-12T04:01:09.289Z,8.2
2023-01-12T04:03:14.248Z,8.2
2023-01-12T04:05:16.141Z,8.2
2023-01-12T04:07:18.136Z,8.2
2023-01-12T04:08:20.636Z,8.2
2023-01-12T04:10:22.608Z,8.2
2023-01-12T04:12:24.609Z,8.2
2023-01-12T04:14:26.575Z,8.2
2023-01-12T04:16:31.697Z,8.2
2023-01-12T04:18:33.905Z,8.1
2023-01-12T04:20:35.560Z,8.1
2023-01-12T04:22:37.568Z,8.1
2023-01-12T04:24:39.531Z,8.1
2023-01-12T04:26:41.506Z,8.1
2023-01-12T04:28:43.483Z,8.1
2023-01-12T04:34:54.010Z,8
2023-01-12T04:36:55.939Z,8
2023-01-12T04:40:59.884Z,7.9
2023-01-12T04:45:06.883Z,7.9
2023-01-12T04:47:08.871Z,7.9
2023-01-12T04:49:10.833Z,7.9
2023-01-12T04:51:12.808Z,7.9
2023-01-12T04:53:14.827Z,7.9
2023-01-12T04:55:16.756Z,7.9
2023-01-12T04:57:18.739Z,7.9
2023-01-12T04:59:23.751Z,8
2023-01-12T05:01:25.818Z,7.9
2023-01-12T05:03:27.724Z,7.9
2023-01-12T05:04:30.471Z,7.9
2023-01-12T05:06:32.221Z,7.9
2023-01-12T05:08:34.194Z,7.9
2023-01-12T05:10:36.155Z,7.9
2023-01-12T05:12:41.204Z,8
2023-01-12T05:14:43.179Z,8
2023-01-12T05:16:45.225Z,8
2023-01-12T05:18:47.096Z,8
2023-01-12T05:20:49.096Z,8
2023-01-12T05:22:51.051Z,8.1
2023-01-12T05:24:53.038Z,8
2023-01-12T05:26:58.094Z,8.1
2023-01-12T05:31:02.052Z,8.1
2023-01-12T05:33:04.007Z,8
2023-01-12T05:35:05.961Z,8.1
2023-01-12T05:37:07.923Z,8.1
2023-01-12T05:39:09.891Z,8.1
2023-01-12T05:41:14.914Z,8.1
2023-01-12T05:43:16.885Z,8.2
2023-01-12T05:45:18.870Z,8.2
2023-01-12T05:47:20.837Z,8.2
2023-01-12T05:49:22.785Z,8.2
2023-01-12T05:51:24.832Z,8.2
2023-01-12T05:53:26.808Z,8.3
2023-01-12T05:55:31.792Z,8.3
2023-01-12T05:57:33.759Z,8.2
2023-01-12T05:59:35.735Z,8.3
2023-01-12T06:06:02.581Z,8.2
2023-01-12T06:10:09.602Z,8.3
2023-01-12T06:14:13.564Z,8.3
2023-01-12T06:16:15.587Z,8.3
2023-01-12T06:18:17.525Z,8.3
2023-01-12T06:20:19.482Z,8.3
2023-01-12T06:22:24.517Z,8.3
2023-01-12T06:24:26.519Z,8.3
2023-01-12T06:26:28.486Z,8.3
2023-01-12T06:28:30.448Z,8.3
2023-01-12T06:30:32.418Z,8.3
2023-01-12T06:32:34.416Z,8.2
2023-01-12T06:34:36.391Z,8.3
2023-01-12T06:36:41.421Z,8.2
2023-01-12T06:38:43.412Z,8.3
2023-01-12T06:40:45.356Z,8.2
2023-01-12T06:42:47.343Z,8.2
2023-01-12T06:44:49.318Z,8.2
2023-01-12T06:46:51.312Z,8.3
2023-01-12T06:48:53.285Z,8.2
2023-01-12T06:50:58.321Z,8.3
2023-01-12T06:53:00.327Z,8.3
2023-01-12T06:55:02.281Z,8.3
2023-01-12T06:56:04.791Z,8.3
2023-01-12T06:58:06.759Z,8.3
2023-01-12T07:00:08.734Z,8.3
2023-01-12T07:04:15.786Z,8.4
2023-01-12T07:06:17.736Z,8.4
2023-01-12T07:14:25.653Z,8.5
2023-01-12T07:22:36.583Z,8.5
2023-01-12T07:24:38.568Z,8.5
2023-01-12T07:28:42.496Z,8.6
2023-01-12T07:30:44.499Z,8.7
2023-01-12T07:32:49.583Z,8.7
2023-01-12T07:34:51.501Z,8.7
2023-01-12T07:36:53.466Z,8.6
2023-01-12T07:38:55.471Z,8.7
2023-01-12T07:40:57.428Z,8.8
2023-01-12T07:42:59.423Z,8.8
2023-01-12T07:45:01.395Z,8.8
2023-01-12T07:47:06.424Z,8.8
2023-01-12T07:49:08.391Z,8.8
2023-01-12T07:51:10.374Z,8.9
2023-01-12T07:54:14.882Z,8.9
2023-01-12T07:56:16.840Z,8.9
2023-01-12T07:58:18.818Z,8.9
2023-01-12T08:00:23.844Z,9
2023-01-12T08:02:25.857Z,9
2023-01-12T08:04:27.796Z,9
2023-01-12T08:10:33.743Z,9.1
2023-01-12T08:12:35.701Z,9.1
2023-01-12T08:14:40.741Z,9.1
2023-01-12T08:18:44.672Z,9.1
2023-01-12T08:20:46.674Z,9.2
2023-01-12T08:22:48.644Z,9.2
2023-01-12T08:26:52.602Z,9.2
2023-01-12T08:28:57.655Z,9.3
2023-01-12T08:30:59.729Z,9.3
2023-01-12T08:33:01.621Z,9.3
2023-01-12T08:35:03.578Z,9.3
2023-01-12T08:37:05.553Z,9.3
2023-01-12T08:39:07.564Z,9.3
2023-01-12T08:41:09.540Z,9.3
2023-01-12T08:43:14.590Z,9.4
2023-01-12T08:45:16.553Z,9.4
2023-01-12T08:48:21.079Z,9.4
2023-01-12T08:50:23.055Z,9.4
2023-01-12T08:52:25.041Z,9.4
2023-01-12T08:54:27.010Z,9.5
2023-01-12T08:56:32.063Z,9.5
2023-01-12T08:58:34.060Z,9.5
2023-01-12T09:00:36.112Z,9.5
2023-01-12T09:02:38.035Z,9.5
2023-01-12T09:04:39.989Z,9.5
2023-01-12T09:08:43.961Z,9.6
2023-01-12T09:10:48.986Z,9.6
2023-01-12T09:12:50.967Z,9.6
2023-01-12T09:14:52.938Z,9.6
2023-01-12T09:16:54.945Z,9.6
2023-01-12T09:18:56.932Z,9.6
2023-01-12T09:20:58.887Z,9.6
2023-01-12T09:23:00.942Z,9.6
2023-01-12T09:25:05.954Z,9.7
2023-01-12T09:27:07.907Z,9.7
2023-01-12T09:29:09.902Z,9.7
2023-01-12T09:31:11.952Z,9.7
2023-01-12T09:33:13.865Z,9.7
2023-01-12T09:35:15.827Z,9.6
2023-01-12T09:37:17.815Z,9.6
2023-01-12T09:39:27.619Z,9.7
2023-01-12T09:41:24.840Z,9.7
2023-01-12T09:43:26.815Z,9.7
2023-01-12T09:45:49.595Z,9.7
2023-01-12T09:47:53.579Z,9.7
2023-01-12T09:49:55.898Z,9.7
2023-01-12T09:51:58.536Z,9.7
2023-01-12T09:54:00.589Z,9.7
2023-01-12T09:56:02.503Z,9.8
2023-01-12T09:58:04.496Z,9.8
2023-01-12T10:00:06.489Z,9.8
2023-01-12T10:02:08.559Z,9.8
2023-01-12T10:04:10.426Z,9.8
2023-01-12T10:06:15.481Z,9.8
2023-01-12T10:08:17.469Z,9.8
2023-01-12T10:10:19.450Z,9.8
2023-01-12T10:12:21.434Z,9.8
2023-01-12T10:14:23.420Z,9.9
2023-01-12T10:16:25.546Z,9.8
2023-01-12T10:18:27.403Z,9.9
2023-01-12T10:20:32.429Z,9.9
2023-01-12T10:22:34.424Z,9.9
2023-01-12T10:24:36.407Z,9.9
2023-01-12T10:26:39.926Z,9.9
2023-01-12T10:28:41.847Z,9.9
2023-01-12T10:30:43.839Z,9.9
2023-01-12T10:32:45.811Z,10
2023-01-12T10:36:55.548Z,10
2023-01-12T10:39:57.363Z,10
2023-01-12T10:41:59.347Z,10
2023-01-12T10:44:01.332Z,10
2023-01-12T10:46:03.357Z,10
2023-01-12T10:48:08.360Z,10.1
2023-01-12T10:50:10.372Z,10.1
2023-01-12T10:52:12.326Z,10.1
2023-01-12T10:54:14.322Z,10.1
2023-01-12T10:56:16.311Z,10.2
2023-01-12T10:58:18.277Z,10.2
2023-01-12T11:00:20.272Z,10.2
2023-01-12T11:02:25.372Z,10.2
2023-01-12T11:08:31.255Z,10.2
2023-01-12T11:10:33.379Z,10.2
2023-01-12T11:18:44.266Z,10.2
2023-01-12T11:20:46.240Z,10.2
2023-01-12T11:22:48.249Z,10.2
2023-01-12T11:24:50.224Z,10.2
2023-01-12T11:26:52.223Z,10.2
2023-01-12T11:28:54.177Z,10.2
2023-01-12T11:30:59.344Z,10.2
2023-01-12T11:33:01.230Z,10.2
2023-01-12T11:35:04.756Z,10.2
2023-01-12T11:36:05.735Z,10.2
2023-01-12T11:38:07.721Z,10.2
2023-01-12T11:40:09.721Z,10.2
2023-01-12T11:42:11.700Z,10.2
2023-01-12T11:46:18.875Z,10.2
2023-01-12T11:54:26.722Z,10.2
2023-01-12T11:56:28.695Z,10.2
2023-01-12T11:58:33.737Z,10.2
2023-01-12T12:00:35.725Z,10.2
2023-01-12T12:02:37.814Z,10.2
2023-01-12T12:04:39.713Z,10.2
2023-01-12T12:06:41.723Z,10.1
2023-01-12T12:08:43.678Z,10.2
2023-01-12T12:10:45.654Z,10.2
2023-01-12T12:12:50.726Z,10.2
2023-01-12T12:14:52.712Z,10.2
2023-01-12T12:16:54.680Z,10.2
2023-01-12T12:18:56.668Z,10.2
2023-01-12T12:20:58.656Z,10.2
2023-01-12T12:23:00.687Z,10.3
2023-01-12T12:25:02.641Z,10.3
2023-01-12T12:29:09.702Z,10.3
2023-01-12T12:32:14.212Z,10.3
2023-01-12T12:36:18.182Z,10.3
2023-01-12T12:38:20.151Z,10.3
2023-01-12T12:40:25.216Z,10.3
2023-01-12T12:44:29.199Z,10.3
2023-01-12T12:48:33.172Z,10.3
2023-01-12T12:50:35.170Z,10.2
2023-01-12T12:54:42.213Z,10.2
2023-01-12T12:58:46.167Z,10.3
2023-01-12T13:00:48.256Z,10.3
2023-01-12T13:02:50.161Z,10.3
2023-01-12T13:04:52.115Z,10.3
2023-01-12T13:06:54.133Z,10.3
2023-01-12T13:08:59.167Z,10.3
2023-01-12T13:11:01.162Z,10.3
2023-01-12T13:13:03.150Z,10.3
2023-01-12T13:15:05.136Z,10.3
2023-01-12T13:17:07.115Z,10.3
2023-01-12T13:19:09.131Z,10.3
2023-01-12T13:21:11.107Z,10.2
2023-01-12T13:23:16.146Z,10.3
2023-01-12T13:25:18.142Z,10.3
2023-01-12T13:27:20.126Z,10.3
2023-01-12T13:29:37.186Z,10.3
2023-01-12T13:31:39.112Z,10.3
2023-01-12T13:33:41.123Z,10.3
2023-01-12T13:35:46.197Z,10.2
2023-01-12T13:37:48.157Z,10.3
2023-01-12T13:39:50.185Z,10.3
2023-01-12T13:41:52.136Z,10.3
2023-01-12T13:43:54.108Z,10.3
2023-01-12T13:45:56.108Z,10.2
2023-01-12T13:47:58.104Z,10.3
2023-01-12T13:50:03.229Z,10.3
2023-01-12T13:52:05.135Z,10.2
2023-01-12T13:54:07.126Z,10.2
2023-01-12T13:56:09.116Z,10.2
2023-01-12T13:58:11.100Z,10.2
2023-01-12T14:00:13.077Z,10.2
2023-01-12T14:02:15.120Z,10.2
2023-01-12T14:04:20.547Z,10.2
2023-01-12T14:06:22.108Z,10.2
2023-01-12T14:08:24.105Z,10.2
2023-01-12T14:10:26.083Z,10.2
2023-01-12T14:12:28.119Z,10.2
2023-01-12T14:14:30.009Z,10.2
2023-01-12T14:16:32.048Z,10.2
2023-01-12T14:18:37.040Z,10.2
2023-01-12T14:22:41.150Z,10.2
2023-01-12T14:23:43.535Z,10.2
2023-01-12T14:25:45.503Z,10.2
2023-01-12T14:27:47.507Z,10.2
2023-01-12T14:29:49.513Z,10.2
2023-01-12T14:31:54.599Z,10.2
2023-01-12T14:33:56.518Z,10.2
2023-01-12T14:35:58.497Z,10.1
2023-01-12T14:38:00.529Z,10.1
2023-01-12T14:40:02.496Z,10.1
2023-01-12T14:46:11.505Z,10.1
2023-01-12T14:48:13.488Z,10.1
2023-01-12T14:56:21.470Z,10
2023-01-12T15:00:28.665Z,9.9
2023-01-12T15:02:30.451Z,9.9
2023-01-12T15:06:34.447Z,9.9
2023-01-12T15:08:36.441Z,9.9
2023-01-12T15:10:38.535Z,9.9
2023-01-12T15:12:40.383Z,9.9
2023-01-12T15:14:45.431Z,9.9
2023-01-12T15:16:47.452Z,9.8
2023-01-12T15:18:49.432Z,9.9
2023-01-12T15:28:02.952Z,9.8
2023-01-12T15:34:08.867Z,9.8
2023-01-12T15:36:10.870Z,9.8
2023-01-12T15:38:12.841Z,9.8
2023-01-12T15:40:14.799Z,9.8
2023-01-12T15:42:19.854Z,9.8
2023-01-12T15:44:21.840Z,9.8
2023-01-12T15:46:23.841Z,9.8
2023-01-12T15:48:25.811Z,9.8
2023-01-12T15:50:27.823Z,9.8
2023-01-12T15:52:29.767Z,9.8
2023-01-12T15:54:31.764Z,9.8
2023-01-12T15:56:36.832Z,9.8
2023-01-12T15:58:38.817Z,9.8
2023-01-12T16:00:40.850Z,9.8
2023-01-12T16:02:43.865Z,9.8
2023-01-12T16:04:44.931Z,9.8
2023-01-12T16:06:46.794Z,9.8
2023-01-12T16:08:48.781Z,9.8
2023-01-12T16:10:53.806Z,9.8
2023-01-12T16:12:55.828Z,9.8
2023-01-12T16:14:57.817Z,9.8
2023-01-12T16:16:00.344Z,9.8
2023-01-12T16:18:03.839Z,9.8
2023-01-12T16:20:05.780Z,9.8
2023-01-12T16:22:07.763Z,9.8
2023-01-12T16:24:12.815Z,9.9
2023-01-12T16:26:14.816Z,9.8
2023-01-12T16:28:16.812Z,9.8
2023-01-12T16:30:18.759Z,9.8
2023-01-12T16:32:20.737Z,9.8
2023-01-12T16:34:22.902Z,9.8
2023-01-12T16:36:24.730Z,9.7
2023-01-12T16:38:29.797Z,9.8
2023-01-12T16:40:31.775Z,9.8
2023-01-12T16:42:33.748Z,9.8
2023-01-12T16:44:35.739Z,9.8
2023-01-12T16:46:37.772Z,9.8
2023-01-12T16:48:39.726Z,9.8
2023-01-12T16:50:41.705Z,9.7
2023-01-12T16:52:46.760Z,9.8
2023-01-12T16:54:48.756Z,9.8
2023-01-12T16:56:50.731Z,9.8
2023-01-12T16:58:52.729Z,9.8
2023-01-12T17:00:54.852Z,9.7
2023-01-12T17:02:56.765Z,9.8
2023-01-12T17:04:58.705Z,9.7
2023-01-12T17:07:03.742Z,9.8
2023-01-12T17:09:05.726Z,9.8
2023-01-12T17:11:07.706Z,9.8
2023-01-12T17:13:30.269Z,9.8
2023-01-12T17:15:32.385Z,9.8
2023-01-12T17:17:34.279Z,9.8
2023-01-12T17:19:39.308Z,9.8
2023-01-12T17:23:43.264Z,9.8
2023-01-12T17:27:47.271Z,9.9
2023-01-12T17:29:49.232Z,9.9
2023-01-12T17:35:58.282Z,9.9
2023-01-12T17:38:00.269Z,9.8
2023-01-12T17:42:04.255Z,9.9
2023-01-12T17:44:06.251Z,9.9
2023-01-12T17:46:08.253Z,9.9
2023-01-12T17:48:13.279Z,9.9
2023-01-12T17:50:15.259Z,9.9
2023-01-12T17:52:17.257Z,9.9
2023-01-12T17:54:19.231Z,9.9
2023-01-12T17:56:21.214Z,9.9
2023-01-12T17:58:23.212Z,9.8
2023-01-12T18:00:25.169Z,9.9
2023-01-12T18:04:32.227Z,9.9
2023-01-12T18:06:34.210Z,9.9
2023-01-12T18:07:36.723Z,9.8
2023-01-12T18:09:38.698Z,9.9
2023-01-12T18:13:42.687Z,9.9
2023-01-12T18:15:47.773Z,9.9
2023-01-12T18:17:49.704Z,9.9
2023-01-12T18:19:51.745Z,9.9
2023-01-12T18:21:53.702Z,9.9
2023-01-12T18:23:55.689Z,9.9
2023-01-12T18:25:57.688Z,9.9
2023-01-12T18:27:59.673Z,9.9
2023-01-12T18:30:04.720Z,9.9
2023-01-12T18:32:06.710Z,9.9
2023-01-12T18:36:10.702Z,9.9
2023-01-12T18:38:12.699Z,9.8
2023-01-12T18:40:14.647Z,9.8
2023-01-12T18:42:16.680Z,9.9
2023-01-12T18:44:21.713Z,9.8
2023-01-12T18:46:23.715Z,9.8
2023-01-12T18:48:25.673Z,9.9
2023-01-12T18:50:27.695Z,9.8
2023-01-12T18:54:31.649Z,9.9
2023-01-12T18:58:38.688Z,9.8
2023-01-12T19:02:42.772Z,9.8
2023-01-12T19:03:45.191Z,9.9
2023-01-12T19:05:47.165Z,9.8
2023-01-12T19:07:49.148Z,9.9
2023-01-12T19:09:51.155Z,9.8
2023-01-12T19:11:56.200Z,9.8
2023-01-12T19:13:58.184Z,9.8
2023-01-12T19:16:00.273Z,9.8
2023-01-12T19:18:02.169Z,9.8
2023-01-12T19:20:04.163Z,9.8
2023-01-12T19:22:06.135Z,9.8
2023-01-12T19:24:08.126Z,9.8
2023-01-12T19:26:13.147Z,9.8
2023-01-12T19:28:15.136Z,9.8
2023-01-12T19:30:17.141Z,9.8
2023-01-12T19:32:19.127Z,9.8
2023-01-12T19:36:23.086Z,9.8
2023-01-12T19:38:25.063Z,9.8
2023-01-12T19:42:32.136Z,9.8
2023-01-12T19:44:34.092Z,9.8
2023-01-12T19:48:38.074Z,9.8
2023-01-12T19:50:40.065Z,9.8
2023-01-12T19:52:42.031Z,9.8
2023-01-12T19:54:47.064Z,9.8
2023-01-12T19:56:49.057Z,9.8
2023-01-12T19:58:51.064Z,9.8
2023-01-12T19:59:53.586Z,9.8
2023-01-12T20:01:55.668Z,9.8
2023-01-12T20:03:57.604Z,9.7
2023-01-12T20:05:59.576Z,9.7
2023-01-12T20:08:04.623Z,9.8
2023-01-12T20:10:06.595Z,9.8
2023-01-12T20:12:08.601Z,9.8
2023-01-12T20:14:10.574Z,9.7
2023-01-12T20:16:12.601Z,9.8
2023-01-12T20:18:14.547Z,9.8
2023-01-12T20:20:16.548Z,9.8
2023-01-12T20:22:21.639Z,9.8
2023-01-12T20:24:23.561Z,9.8
2023-01-12T20:26:25.569Z,9.7
2023-01-12T20:28:27.552Z,9.8
2023-01-12T20:30:37.804Z,9.7
2023-01-12T20:32:31.591Z,9.8
2023-01-12T20:34:33.493Z,9.8
2023-01-12T20:36:38.540Z,9.8
2023-01-12T20:38:40.547Z,9.7
2023-01-12T20:40:42.516Z,9.7
2023-01-12T20:42:44.526Z,9.7
2023-01-12T20:44:46.518Z,9.7
2023-01-12T20:46:48.483Z,9.7
2023-01-12T20:48:50.488Z,9.7
2023-01-12T20:50:55.527Z,9.7
2023-01-12T20:52:57.486Z,9.7
2023-01-12T20:54:59.488Z,9.7
2023-01-12T20:57:22.308Z,9.7
2023-01-12T20:59:24.310Z,9.7
2023-01-12T21:01:26.379Z,9.6
2023-01-12T21:03:31.409Z,9.6
2023-01-12T21:05:33.315Z,9.7
2023-01-12T21:07:35.317Z,9.7
2023-01-12T21:09:37.314Z,9.7
2023-01-12T21:11:39.299Z,9.7
2023-01-12T21:13:41.267Z,9.6
2023-01-12T21:15:43.406Z,9.7
2023-01-12T21:17:48.292Z,9.7
2023-01-12T21:21:52.276Z,9.7
2023-01-12T21:23:54.265Z,9.6
2023-01-12T21:25:56.244Z,9.7
2023-01-12T21:27:58.219Z,9.6
2023-01-12T21:30:00.231Z,9.5
2023-01-12T21:32:05.309Z,9.3
2023-01-12T21:34:07.260Z,9.2
2023-01-12T21:36:09.228Z,9.2
2023-01-12T21:38:11.259Z,9.2
2023-01-12T21:40:13.223Z,9.3
2023-01-12T21:42:15.209Z,9.3
2023-01-12T21:44:17.195Z,9.4
2023-01-12T21:46:22.243Z,9.4
2023-01-12T21:48:24.233Z,9.4
2023-01-12T21:50:26.228Z,9.4
2023-01-12T21:51:28.747Z,9.5
2023-01-12T21:53:30.749Z,9.4
2023-01-12T21:55:32.723Z,9.5
2023-01-12T21:57:34.739Z,9.4
2023-01-12T21:59:39.752Z,9.3
2023-01-12T22:01:41.872Z,9.3
2023-01-12T22:03:43.812Z,9.2
2023-01-12T22:05:45.711Z,9.1
2023-01-12T22:07:47.710Z,9.1
2023-01-12T22:09:51.219Z,9.1
2023-01-12T22:11:53.139Z,9.1
2023-01-12T22:13:58.176Z,9.1
2023-01-12T22:16:00.215Z,9
2023-01-12T22:18:02.199Z,9
2023-01-12T22:20:04.162Z,9.1
2023-01-12T22:22:06.135Z,9.1
2023-01-12T22:24:08.118Z,9.1
2023-01-12T22:26:10.113Z,9.1
2023-01-12T22:28:15.143Z,9.1
2023-01-12T22:30:17.130Z,9
2023-01-12T22:32:19.109Z,9
2023-01-12T22:38:25.066Z,8.9
2023-01-12T22:40:27.024Z,8.9
2023-01-12T22:42:32.083Z,8.9
2023-01-12T22:44:34.066Z,8.9
2023-01-12T22:46:36.038Z,8.9
2023-01-12T22:49:40.622Z,8.9
2023-01-12T22:51:42.510Z,8.8
2023-01-12T22:53:44.496Z,8.8
2023-01-12T22:55:49.556Z,8.8
2023-01-12T22:57:51.531Z,8.8
2023-01-12T22:59:53.518Z,8.8
2023-01-12T23:01:55.531Z,8.7
2023-01-12T23:03:57.484Z,8.8
2023-01-12T23:05:59.495Z,8.8
2023-01-12T23:08:01.450Z,8.8
2023-01-12T23:10:06.516Z,8.6
2023-01-12T23:12:08.466Z,8.6
2023-01-12T23:14:10.518Z,8.6
2023-01-12T23:16:12.480Z,8.6
2023-01-12T23:18:14.400Z,8.6
2023-01-12T23:20:16.417Z,8.6
2023-01-12T23:22:18.355Z,8.6
2023-01-12T23:26:25.382Z,8.5
2023-01-12T23:28:27.362Z,8.5
2023-01-12T23:30:29.372Z,8.5
2023-01-12T23:32:31.336Z,8.5
2023-01-12T23:38:40.345Z,8.5
2023-01-12T23:40:42.330Z,8.5
2023-01-12T23:42:44.347Z,8.5
2023-01-12T23:43:46.890Z,8.4
2023-01-12T23:45:48.887Z,8.4
2023-01-12T23:47:50.844Z,8.5
2023-01-12T23:49:52.826Z,8.4
2023-01-12T23:51:57.845Z,8.4
2023-01-12T23:53:59.850Z,8.4
2023-01-12T23:56:01.803Z,8.3
2023-01-12T23:58:03.786Z,8.4
